Time;durP1;ratioP1;P1;durP2;ratioP2;P2;SDS_P1;SDS_P2;PMS_P1;PMS_P2;Temp;Humidity;BMP_temperature;BMP_pressure;BME280_temperature;BME280_humidity;BME280_pressure;Samples;Min_cycle;Max_cycle;Signal;HPM_P1;HPM_P2
2023/06/12 00:01:31;;;;;;;4.78;4.38;;;;;;;20.35;54.20;95446.03;6210045;23;20193;-88
2023/06/12 00:03:58;;;;;;;4.57;4.20;;;;;;;20.36;54.41;95439.78;6211194;23;20193;-89
2023/06/12 00:06:24;;;;;;;4.60;4.20;;;;;;;20.35;54.20;95439.00;6210345;23;20174;-88
2023/06/12 00:08:51;;;;;;;4.45;4.15;;;;;;;20.28;54.95;95440.19;6210593;23;20698;-88
2023/06/12 00:11:26;;;;;;;5.13;3.92;;;;;;;20.33;54.80;95438.44;6211402;23;20812;-88
2023/06/12 00:13:57;;;;;;;4.93;4.53;;;;;;;20.38;54.86;95442.97;6211357;23;20236;-90
2023/06/12 00:16:24;;;;;;;6.95;5.00;;;;;;;20.35;54.67;95441.59;6211480;23;20196;-88
2023/06/12 00:18:51;;;;;;;5.00;4.50;;;;;;;20.23;55.05;95433.03;6210291;23;20641;-88
2023/06/12 00:21:19;;;;;;;4.93;4.50;;;;;;;20.19;55.34;95434.59;6211015;23;20194;-89
2023/06/12 00:23:46;;;;;;;4.72;4.32;;;;;;;20.26;55.08;95437.78;6210620;23;20687;-89
2023/06/12 00:26:13;;;;;;;4.65;4.35;;;;;;;20.25;55.19;95440.66;6210891;23;20219;-89
2023/06/12 00:28:40;;;;;;;4.53;4.22;;;;;;;20.32;54.83;95438.66;6210696;23;20177;-89
2023/06/12 00:31:08;;;;;;;5.40;4.90;;;;;;;20.28;55.17;95434.94;6210460;23;20204;-88
2023/06/12 00:33:46;;;;;;;4.88;4.45;;;;;;;20.24;55.43;95442.47;6209970;23;20498;-88
2023/06/12 00:36:15;;;;;;;4.80;4.47;;;;;;;20.26;55.15;95437.78;6209987;23;20501;-89
2023/06/12 00:38:41;;;;;;;5.43;4.93;;;;;;;20.16;55.76;95434.25;6209990;23;20174;-88
2023/06/12 00:41:08;;;;;;;4.90;4.50;;;;;;;20.13;55.55;95435.53;6210364;23;20219;-89
2023/06/12 00:43:34;;;;;;;5.25;4.85;;;;;;;20.08;55.72;95438.06;6209914;23;20252;-89
2023/06/12 00:46:01;;;;;;;5.07;4.78;;;;;;;20.00;56.29;95426.19;6209895;23;20182;-89
2023/06/12 00:48:29;;;;;;;5.00;4.57;;;;;;;20.07;56.13;95433.88;6210242;23;20537;-88
2023/06/12 00:50:57;;;;;;;5.60;5.07;;;;;;;20.05;56.21;95440.34;6209672;23;20200;-89
2023/06/12 00:53:24;;;;;;;5.30;4.80;;;;;;;20.00;56.44;95431.44;6210770;23;20174;-89
2023/06/12 00:55:50;;;;;;;5.05;4.50;;;;;;;19.91;56.49;95432.84;6210319;23;20192;-88
2023/06/12 00:58:17;;;;;;;5.22;4.82;;;;;;;19.84;57.00;95442.66;6210143;23;20173;-90
2023/06/12 01:00:44;;;;;;;5.25;4.85;;;;;;;19.79;57.10;95439.19;6210462;23;20177;-88
2023/06/12 01:03:13;;;;;;;5.13;4.70;;;;;;;19.79;56.95;95442.59;6210791;23;20243;-88
2023/06/12 01:05:51;;;;;;;5.15;4.75;;;;;;;19.79;57.24;95445.22;6208982;23;20181;-88
2023/06/12 01:08:23;;;;;;;5.68;4.82;;;;;;;19.80;57.36;95444.19;6210693;23;20581;-88
2023/06/12 01:10:53;;;;;;;5.60;5.15;;;;;;;19.86;57.17;95439.81;6209966;23;20209;-88
2023/06/12 01:13:20;;;;;;;5.32;4.82;;;;;;;19.88;56.82;95433.31;6210360;23;20162;-88
2023/06/12 01:15:47;;;;;;;5.47;5.07;;;;;;;19.77;57.45;95433.41;6210058;23;20234;-88
2023/06/12 01:18:14;;;;;;;5.55;5.05;;;;;;;19.73;57.41;95435.69;6210026;23;20652;-89
2023/06/12 01:20:53;;;;;;;5.32;4.82;;;;;;;19.70;57.85;95435.38;6209778;23;20912;-89
2023/06/12 01:23:53;;;;;;;5.25;4.75;;;;;;;19.64;58.40;95443.13;6210029;23;20189;-89
2023/06/12 01:26:50;;;;;;;5.15;4.65;;;;;;;19.73;57.77;95437.53;6210035;23;20165;-88
2023/06/12 01:29:55;;;;;;;5.38;4.88;;;;;;;19.57;58.48;95439.09;6210804;23;20563;-89
2023/06/12 01:32:24;;;;;;;5.22;4.80;;;;;;;19.63;58.23;95444.16;6210452;23;20201;-88
2023/06/12 01:34:57;;;;;;;5.55;5.13;;;;;;;19.81;57.72;95435.31;6210004;23;20166;-89
2023/06/12 01:37:40;;;;;;;6.32;5.82;;;;;;;19.69;57.95;95433.78;6209082;23;20671;-88
2023/06/12 01:40:08;;;;;;;5.35;4.80;;;;;;;19.62;57.86;95428.75;6210045;23;20157;-89
2023/06/12 01:42:35;;;;;;;6.10;5.60;;;;;;;19.63;58.24;95435.53;6209496;23;20289;-89
2023/06/12 01:45:02;;;;;;;5.60;5.10;;;;;;;19.44;58.86;95427.06;6209804;23;20656;-88
2023/06/12 01:47:29;;;;;;;5.43;5.00;;;;;;;19.45;58.79;95426.06;6209884;23;20205;-89
2023/06/12 01:49:57;;;;;;;5.95;5.20;;;;;;;19.49;58.21;95421.94;6209621;23;20185;-88
2023/06/12 01:52:23;;;;;;;5.82;5.32;;;;;;;19.34;59.03;95416.47;6210289;23;20216;-89
2023/06/12 01:54:50;;;;;;;5.50;5.10;;;;;;;19.36;58.92;95418.84;6209451;23;20178;-89
2023/06/12 01:57:19;;;;;;;5.57;5.18;;;;;;;19.33;59.04;95417.50;6210079;23;20525;-88
2023/06/12 01:59:46;;;;;;;5.72;5.22;;;;;;;19.25;59.08;95410.81;6210947;23;20179;-88
2023/06/12 02:02:21;;;;;;;5.78;5.38;;;;;;;19.22;59.37;95415.75;6211881;23;20680;-88
2023/06/12 02:04:55;;;;;;;6.55;5.47;;;;;;;19.26;59.39;95407.19;6212495;23;20177;-89
2023/06/12 02:07:21;;;;;;;5.72;5.22;;;;;;;19.14;60.00;95414.28;6212205;23;20178;-88
2023/06/12 02:09:48;;;;;;;5.55;5.10;;;;;;;19.22;59.76;95415.75;6211456;23;20637;-88
2023/06/12 02:12:14;;;;;;;5.40;5.00;;;;;;;19.22;59.58;95413.94;6211789;23;20534;-89
2023/06/12 02:14:41;;;;;;;5.78;5.28;;;;;;;19.14;59.83;95411.69;6211922;23;20174;-88
2023/06/12 02:17:08;;;;;;;6.53;5.63;;;;;;;19.16;59.86;95419.28;6211442;23;20201;-89
2023/06/12 02:19:34;;;;;;;5.28;4.88;;;;;;;19.16;60.03;95420.06;6211898;23;20261;-89
2023/06/12 02:22:02;;;;;;;6.40;5.40;;;;;;;19.14;60.11;95418.72;6212027;23;20190;-89
2023/06/12 02:24:39;;;;;;;6.00;5.47;;;;;;;19.11;60.21;95424.41;6211423;23;20189;-88
2023/06/12 02:27:06;;;;;;;6.15;5.55;;;;;;;19.11;60.06;95424.41;6211284;23;20164;-89
2023/06/12 02:29:32;;;;;;;5.97;5.47;;;;;;;19.01;60.45;95425.03;6211862;23;20177;-89
2023/06/12 02:31:59;;;;;;;5.90;5.38;;;;;;;18.97;60.45;95426.50;6211211;23;20813;-88
2023/06/12 02:34:25;;;;;;;5.80;5.40;;;;;;;19.00;60.25;95420.03;6212293;23;20759;-87
2023/06/12 02:36:52;;;;;;;5.68;5.28;;;;;;;18.99;60.39;95419.25;6211857;23;20185;-89
2023/06/12 02:39:19;;;;;;;5.72;5.28;;;;;;;18.96;60.49;95422.31;6211319;23;20178;-88
2023/06/12 02:41:48;;;;;;;5.90;5.40;;;;;;;19.01;60.04;95416.41;6211503;23;20208;-89
2023/06/12 02:44:15;;;;;;;5.40;5.00;;;;;;;19.02;60.44;95416.19;6211249;23;20205;-89
2023/06/12 02:47:00;;;;;;;5.38;4.97;;;;;;;19.01;60.46;95416.41;6211016;23;20181;-89
2023/06/12 02:49:33;;;;;;;5.45;5.05;;;;;;;19.04;60.11;95418.56;6211340;23;20672;-89
2023/06/12 02:51:59;;;;;;;5.80;5.18;;;;;;;19.01;60.25;95414.59;6210845;23;20201;-89
2023/06/12 02:54:28;;;;;;;6.00;5.50;;;;;;;19.09;60.09;95419.41;6211258;23;20173;-89
2023/06/12 02:56:55;;;;;;;6.05;5.45;;;;;;;19.17;59.71;95419.06;6211171;23;20177;-90
2023/06/12 02:59:23;;;;;;;5.45;4.95;;;;;;;19.29;59.54;95413.78;6211007;23;20181;-88
2023/06/12 03:01:50;;;;;;;5.40;4.95;;;;;;;19.25;59.79;95423.09;6210636;23;20200;-88
2023/06/12 03:04:27;;;;;;;6.15;5.55;;;;;;;19.28;59.31;95420.81;6211298;23;20508;-88
2023/06/12 03:06:54;;;;;;;5.93;5.40;;;;;;;19.23;59.68;95419.94;6210954;23;20551;-88
2023/06/12 03:09:21;;;;;;;5.80;5.40;;;;;;;19.22;59.41;95418.34;6211706;23;20183;-88
2023/06/12 03:11:51;;;;;;;6.78;6.07;;;;;;;19.10;60.18;95420.22;6210546;23;20536;-88
2023/06/12 03:14:21;;;;;;;5.40;5.00;;;;;;;19.08;59.71;95422.25;6211838;23;20162;-89
2023/06/12 03:16:48;;;;;;;5.70;5.20;;;;;;;19.08;60.50;95424.88;6210067;23;20657;-90
2023/06/12 03:19:14;;;;;;;5.45;5.00;;;;;;;19.13;60.19;95427.56;6210577;23;20552;-89
2023/06/12 03:21:41;;;;;;;5.90;5.43;;;;;;;19.09;60.23;95421.22;6211233;23;20201;-90
2023/06/12 03:24:07;;;;;;;6.93;5.75;;;;;;;19.02;60.85;95426.63;6210834;23;20193;-88
2023/06/12 03:26:34;;;;;;;6.75;6.15;;;;;;;18.91;61.26;95425.63;6210549;23;20193;-90
2023/06/12 03:29:02;;;;;;;8.60;6.15;;;;;;;18.89;61.32;95429.47;6211376;23;20221;-88
2023/06/12 03:31:37;;;;;;;6.10;5.50;;;;;;;18.85;61.42;95428.38;6210715;23;20190;-89
2023/06/12 03:34:04;;;;;;;6.30;5.70;;;;;;;18.91;61.71;95432.66;6210867;23;20191;-88
2023/06/12 03:36:33;;;;;;;7.05;5.60;;;;;;;18.82;61.96;95441.88;6210874;23;20177;-89
2023/06/12 03:39:00;;;;;;;5.97;5.32;;;;;;;18.84;61.79;95438.03;6209359;23;20718;-90
2023/06/12 03:41:30;;;;;;;6.57;5.53;;;;;;;18.93;61.58;95441.03;6211230;23;20220;-90
2023/06/12 03:43:56;;;;;;;5.95;5.45;;;;;;;18.93;61.51;95446.25;6211112;23;20204;-88
2023/06/12 03:46:30;;;;;;;5.72;5.22;;;;;;;18.86;62.11;95443.78;6210030;23;20208;-88
2023/06/12 03:49:00;;;;;;;6.35;5.75;;;;;;;18.86;61.99;95441.16;6210577;23;20216;-91
2023/06/12 03:51:26;;;;;;;5.97;5.45;;;;;;;18.84;62.37;95445.06;6211231;23;20193;-87
2023/06/12 03:53:53;;;;;;;6.68;6.00;;;;;;;18.85;62.24;95439.59;6210173;23;20177;-89
2023/06/12 03:56:19;;;;;;;6.40;5.72;;;;;;;18.79;62.67;95453.56;6210869;23;20506;-89
2023/06/12 03:58:46;;;;;;;5.88;5.45;;;;;;;18.70;63.13;95447.09;6210670;23;20520;-88
2023/06/12 04:01:15;;;;;;;6.15;5.60;;;;;;;18.80;62.69;95455.16;6210761;23;20193;-90
2023/06/12 04:03:44;;;;;;;6.00;5.50;;;;;;;18.86;62.78;95449.00;6209513;23;20174;-89
2023/06/12 04:06:10;;;;;;;5.80;5.40;;;;;;;18.93;62.66;95451.47;6209968;23;20188;-87
2023/06/12 04:08:40;;;;;;;6.13;5.63;;;;;;;18.98;62.63;95443.75;6209998;23;20205;-88
2023/06/12 04:11:09;;;;;;;6.05;5.57;;;;;;;19.13;62.11;95453.69;6210861;23;20824;-87
2023/06/12 04:13:35;;;;;;;6.18;5.57;;;;;;;19.18;62.06;95451.97;6210718;23;20173;-88
2023/06/12 04:16:02;;;;;;;6.43;5.90;;;;;;;19.23;61.79;95446.06;6210617;23;20539;-89
2023/06/12 04:18:29;;;;;;;6.55;5.95;;;;;;;19.13;62.39;95453.69;6210947;23;20173;-89
2023/06/12 04:20:57;;;;;;;6.43;5.82;;;;;;;19.20;62.12;95449.13;6209888;23;20194;-88
2023/06/12 04:23:29;;;;;;;6.95;6.35;;;;;;;19.21;62.52;95453.31;6210541;23;20173;-88
2023/06/12 04:26:01;;;;;;;6.47;5.97;;;;;;;19.32;62.32;95452.47;6210706;23;20181;-88
2023/06/12 04:28:28;;;;;;;6.45;5.88;;;;;;;19.20;62.55;95452.53;6210797;23;20158;-88
2023/06/12 04:30:55;;;;;;;6.40;5.85;;;;;;;19.15;62.74;95446.41;6210478;23;20193;-88
2023/06/12 04:33:23;;;;;;;7.97;6.20;;;;;;;19.16;63.22;95450.59;6211900;23;20185;-88
2023/06/12 04:35:50;;;;;;;6.43;5.82;;;;;;;19.13;63.51;95457.09;6210537;23;20173;-88
2023/06/12 04:38:19;;;;;;;7.07;6.43;;;;;;;19.18;63.37;95453.78;6211408;23;20169;-89
2023/06/12 04:40:45;;;;;;;6.80;6.18;;;;;;;19.27;63.67;95447.94;6211811;23;20174;-88
2023/06/12 04:43:11;;;;;;;6.85;6.15;;;;;;;19.35;63.12;95449.38;6211232;23;20169;-89
2023/06/12 04:45:44;;;;;;;6.63;6.03;;;;;;;19.30;63.33;95447.47;6211810;23;20205;-88
2023/06/12 04:48:17;;;;;;;6.32;5.82;;;;;;;19.40;63.62;95456.53;6211756;23;20228;-90
2023/06/12 04:50:53;;;;;;;6.85;6.25;;;;;;;19.40;63.68;95457.31;6210839;23;20180;-88
2023/06/12 04:53:29;;;;;;;7.22;6.63;;;;;;;19.56;63.83;95455.78;6211482;23;20223;-88
2023/06/12 04:55:56;;;;;;;6.93;6.43;;;;;;;19.51;63.86;95453.09;6209055;23;20211;-89
2023/06/12 04:58:22;;;;;;;7.40;6.80;;;;;;;19.54;63.97;95453.41;6211978;23;20261;-88
2023/06/12 05:00:49;;;;;;;7.20;6.68;;;;;;;19.57;64.07;95458.16;6210432;23;20182;-88
2023/06/12 05:03:17;;;;;;;6.88;6.30;;;;;;;19.61;64.11;95451.44;6211680;23;20177;-87
2023/06/12 05:05:46;;;;;;;7.13;6.47;;;;;;;19.69;64.16;95458.09;6212496;23;20193;-88
2023/06/12 05:08:26;;;;;;;6.95;6.38;;;;;;;19.82;63.55;95451.78;6211616;23;20180;-88
2023/06/12 05:10:57;;;;;;;7.38;6.65;;;;;;;19.94;63.09;95452.50;6203301;23;20248;-90
2023/06/12 05:13:23;;;;;;;11.23;6.78;;;;;;;19.70;63.94;95457.06;6208339;23;20173;-87
2023/06/12 05:15:50;;;;;;;7.85;7.25;;;;;;;19.74;63.81;95458.19;6211202;23;20173;-88
2023/06/12 05:18:28;;;;;;;7.53;6.85;;;;;;;19.85;63.65;95459.91;6211984;23;20792;-88
2023/06/12 05:20:58;;;;;;;8.18;7.45;;;;;;;19.84;63.56;95462.75;6212243;23;20200;-90
2023/06/12 05:23:29;;;;;;;7.60;6.95;;;;;;;19.80;63.87;95462.47;6212313;23;20256;-88
2023/06/12 05:26:07;;;;;;;7.72;6.97;;;;;;;19.78;63.16;95461.13;6211728;23;20189;-87
2023/06/12 05:28:33;;;;;;;8.07;7.30;;;;;;;19.72;63.40;95462.84;6212391;23;20165;-87
2023/06/12 05:33:32;;;;;;;8.13;7.43;;;;;;;19.50;64.16;95456.72;6182214;23;20170;-86
2023/06/12 05:36:00;;;;;;;8.25;7.28;;;;;;;19.40;64.48;95459.13;6182673;23;20182;-86
2023/06/12 05:38:31;;;;;;;11.60;10.48;;;;;;;19.40;64.60;95465.16;6182027;23;20545;-87
2023/06/12 05:40:59;;;;;;;7.70;7.00;;;;;;;19.30;64.73;95452.69;6182959;23;20190;-89
2023/06/12 05:43:27;;;;;;;7.47;6.88;;;;;;;19.36;64.85;95465.84;6182772;23;20178;-87
2023/06/12 05:45:54;;;;;;;10.00;6.80;;;;;;;19.44;64.41;95462.84;6183305;23;20208;-87
2023/06/12 05:48:20;;;;;;;7.93;7.03;;;;;;;19.54;64.20;95468.28;6182876;23;20174;-85
2023/06/12 05:50:59;;;;;;;7.07;6.32;;;;;;;19.70;63.43;95462.28;6182112;23;20170;-87
2023/06/12 05:53:31;;;;;;;7.68;6.97;;;;;;;19.71;62.49;95468.31;6181674;23;20232;-86
2023/06/12 05:56:00;;;;;;;7.80;7.00;;;;;;;19.79;62.55;95473.16;6181234;23;20241;-87
2023/06/12 05:58:37;;;;;;;7.38;6.82;;;;;;;19.75;62.22;95467.59;6181408;23;20184;-86
2023/06/12 06:01:04;;;;;;;7.72;7.03;;;;;;;19.79;61.73;95465.31;6182359;23;20221;-88
2023/06/12 06:03:32;;;;;;;7.72;6.85;;;;;;;19.83;61.75;95464.59;6181772;23;20261;-86
2023/06/12 06:05:59;;;;;;;6.93;6.25;;;;;;;19.91;61.67;95469.44;6180924;23;20248;-86
2023/06/12 06:08:28;;;;;;;6.82;6.22;;;;;;;20.09;61.42;95475.44;6180992;23;20170;-89
2023/06/12 06:10:59;;;;;;;6.82;6.32;;;;;;;20.19;60.54;95478.22;6181502;23;20194;-86
2023/06/12 06:13:44;;;;;;;6.80;6.25;;;;;;;20.19;60.76;95476.41;6180705;23;20185;-87
2023/06/12 06:16:16;;;;;;;7.20;6.57;;;;;;;20.20;59.92;95475.38;6181472;23;20159;-86
2023/06/12 06:18:48;;;;;;;6.60;5.95;;;;;;;20.35;59.66;95483.44;6181500;23;20181;-86
2023/06/12 06:21:15;;;;;;;15.27;13.88;;;;;;;20.39;58.98;95483.78;6181566;23;20677;-88
2023/06/12 06:24:45;;;;;;;8.30;7.15;;;;;;;20.42;59.50;95487.72;6181771;23;20209;-87
2023/06/12 06:27:13;;;;;;;7.25;6.47;;;;;;;20.51;58.26;95487.09;6059236;23;20680;-89
2023/06/12 06:29:50;;;;;;;6.88;6.32;;;;;;;20.47;58.76;95488.59;6058641;23;20217;-89
2023/06/12 06:32:17;;;;;;;6.75;6.15;;;;;;;20.50;57.77;95489.94;6129072;23;20206;-88
2023/06/12 06:34:44;;;;;;;7.00;6.40;;;;;;;20.59;58.66;95488.50;6179168;23;20247;-87
2023/06/12 06:37:11;;;;;;;6.85;6.25;;;;;;;20.62;57.84;95496.66;6180737;23;20163;-88
2023/06/12 06:39:41;;;;;;;6.85;6.13;;;;;;;20.69;58.16;95496.47;6179183;23;20170;-88
2023/06/12 06:42:14;;;;;;;6.85;5.75;;;;;;;20.78;56.37;95502.09;6179444;23;20198;-87
2023/06/12 06:44:42;;;;;;;6.10;5.60;;;;;;;20.93;56.87;95486.59;6179214;23;20159;-87
2023/06/12 06:47:12;;;;;;;6.63;6.03;;;;;;;21.06;57.12;95501.13;6181509;23;20177;-87
2023/06/12 06:49:39;;;;;;;6.00;5.50;;;;;;;21.18;56.42;95493.94;6181893;23;20225;-89
2023/06/12 06:52:17;;;;;;;8.07;6.63;;;;;;;21.26;56.15;95491.72;6181595;23;20269;-89
2023/06/12 06:54:43;;;;;;;6.75;6.15;;;;;;;21.37;55.63;95497.84;6181228;23;20162;-88
2023/06/12 06:57:20;;;;;;;7.13;5.75;;;;;;;21.31;55.36;95493.59;6181739;23;20174;-87
2023/06/12 06:59:55;;;;;;;8.38;5.80;;;;;;;21.21;55.33;95491.66;6181478;23;20170;-86
2023/06/12 07:02:22;;;;;;;6.28;5.65;;;;;;;21.13;55.35;95483.41;6181070;23;20744;-87
2023/06/12 07:04:50;;;;;;;6.82;6.00;;;;;;;21.27;55.65;95487.25;6182450;23;20245;-89
2023/06/12 07:07:17;;;;;;;6.68;5.80;;;;;;;21.33;54.41;95483.66;6181747;23;20502;-87
2023/06/12 07:09:43;;;;;;;5.68;5.18;;;;;;;21.14;53.90;95479.75;6181335;23;20178;-91
2023/06/12 07:12:24;;;;;;;6.63;5.65;;;;;;;21.26;54.49;95483.84;6182071;23;20221;-87
2023/06/12 07:14:51;;;;;;;9.15;6.78;;;;;;;21.35;54.25;95484.22;6177688;23;20739;-86
2023/06/12 07:17:18;;;;;;;8.50;7.75;;;;;;;21.46;54.45;95491.13;6177488;23;20656;-87
2023/06/12 07:19:44;;;;;;;6.38;5.68;;;;;;;21.58;53.43;95493.59;6177575;23;20186;-87
2023/06/12 07:22:11;;;;;;;7.40;5.85;;;;;;;21.55;54.03;95484.41;6176837;23;20213;-88
2023/06/12 07:24:43;;;;;;;8.40;6.40;;;;;;;21.70;53.47;95483.78;6177604;23;20672;-88
2023/06/12 07:27:10;;;;;;;6.03;5.63;;;;;;;21.80;53.45;95486.47;6177313;23;20185;-89
2023/06/12 07:29:37;;;;;;;7.75;5.40;;;;;;;21.80;52.35;95477.81;6178396;23;20174;-86
2023/06/12 07:32:05;;;;;;;6.30;5.80;;;;;;;21.73;51.96;95492.97;6177022;23;20202;-88
2023/06/12 07:34:32;;;;;;;7.72;5.72;;;;;;;21.69;51.97;95495.28;6175433;23;20256;-89
2023/06/12 07:37:00;;;;;;;6.88;6.32;;;;;;;21.59;52.46;95480.25;6176296;23;20170;-88
2023/06/12 07:39:27;;;;;;;6.32;5.70;;;;;;;21.59;52.57;95485.50;6172906;23;20255;-87
2023/06/12 07:41:53;;;;;;;7.45;6.00;;;;;;;21.68;52.64;95480.59;6178616;23;20282;-86
2023/06/12 07:44:20;;;;;;;6.55;5.75;;;;;;;21.77;51.81;95480.94;6178114;23;20253;-87
2023/06/12 07:46:47;;;;;;;6.45;5.50;;;;;;;21.94;51.35;95481.59;6176024;23;20829;-87
2023/06/12 07:49:29;;;;;;;;;;;;;;;;;;;;;
2023/06/12 07:51:55;;;;;;;5.97;4.80;;;;;;;22.15;50.94;95488.63;6176437;23;20691;-89
2023/06/12 07:54:22;;;;;;;5.85;5.32;;;;;;;22.25;50.58;95488.69;6177951;23;20185;-90
2023/06/12 07:56:50;;;;;;;7.43;5.78;;;;;;;22.36;50.13;95489.56;6177343;23;20171;-89
2023/06/12 07:59:17;;;;;;;6.32;5.82;;;;;;;22.38;49.79;95483.00;6177989;23;20537;-91
2023/06/12 08:02:06;;;;;;;5.97;5.47;;;;;;;22.39;49.47;95481.97;6179565;23;20549;-88
2023/06/12 08:04:35;;;;;;;6.70;5.60;;;;;;;22.45;50.28;95474.94;6180137;23;20174;-89
2023/06/12 08:07:03;;;;;;;6.70;5.28;;;;;;;22.57;49.63;95486.00;6175708;23;20248;-87
2023/06/12 08:09:38;;;;;;;6.25;5.55;;;;;;;22.60;49.13;95484.72;6176693;23;20178;-89
2023/06/12 08:12:05;;;;;;;5.97;5.07;;;;;;;22.71;49.43;95492.38;6176961;23;20229;-88
2023/06/12 08:14:32;;;;;;;6.28;5.65;;;;;;;22.90;49.53;95481.50;6176069;23;20178;-88
2023/06/12 08:16:59;;;;;;;15.32;13.82;;;;;;;23.11;48.79;95475.25;6175534;23;20170;-89
2023/06/12 08:19:26;;;;;;;9.27;8.48;;;;;;;23.17;48.20;95476.06;6178319;23;20206;-89
2023/06/12 08:21:54;;;;;;;5.65;5.25;;;;;;;23.26;48.56;95472.69;6180042;23;20285;-86
2023/06/12 08:24:25;;;;;;;5.82;5.35;;;;;;;23.35;48.31;95479.00;6175758;23;20174;-87
2023/06/12 08:26:51;;;;;;;5.97;5.38;;;;;;;23.25;48.00;95483.47;6174921;23;20234;-88
2023/06/12 08:29:18;;;;;;;6.38;5.47;;;;;;;23.43;47.50;95483.78;6177029;23;20624;-87
2023/06/12 08:31:45;;;;;;;5.30;4.90;;;;;;;23.45;46.99;95483.53;6179108;23;20214;-87
2023/06/12 08:34:12;;;;;;;6.43;4.57;;;;;;;23.59;46.88;95486.47;6178979;23;20162;-87
2023/06/12 08:36:43;;;;;;;7.53;5.38;;;;;;;23.62;46.73;95486.75;6178842;23;20197;-86
2023/06/12 08:39:15;;;;;;;5.72;5.18;;;;;;;23.74;46.29;95487.28;6179887;23;20154;-87
2023/06/12 08:42:03;;;;;;;6.10;5.20;;;;;;;23.75;46.34;95477.53;6179208;23;20198;-86
2023/06/12 08:44:31;;;;;;;6.30;4.90;;;;;;;23.93;46.62;95484.91;6176266;23;20244;-87
2023/06/12 08:46:57;;;;;;;5.18;4.65;;;;;;;24.08;46.11;95484.13;6174748;23;20228;-86
2023/06/12 08:49:25;;;;;;;7.75;4.55;;;;;;;24.25;45.21;95482.03;6175897;23;20182;-87
2023/06/12 08:51:52;;;;;;;12.30;8.80;;;;;;;24.49;45.42;95478.84;6180531;23;20693;-85
2023/06/12 08:54:20;;;;;;;18.52;16.73;;;;;;;24.58;44.47;95474.63;6179957;23;20170;-86
2023/06/12 08:56:46;;;;;;;5.50;5.10;;;;;;;24.65;44.43;95485.66;6184116;23;20200;-84
2023/06/12 08:59:13;;;;;;;5.95;4.97;;;;;;;24.56;43.93;95484.63;6184231;23;20209;-87
2023/06/12 09:01:40;;;;;;;5.45;4.70;;;;;;;24.70;43.99;95475.13;6183175;23;20198;-87
2023/06/12 09:04:28;;;;;;;5.10;4.55;;;;;;;24.31;43.05;95478.34;6182023;23;20181;-89
2023/06/12 09:09:45;;;;;;;5.10;4.40;;;;;;;24.21;43.67;95467.81;6171688;23;20174;-89
2023/06/12 09:12:13;;;;;;;4.95;4.55;;;;;;;23.96;44.64;95471.25;6175201;23;20198;-87
2023/06/12 09:14:41;;;;;;;7.25;4.70;;;;;;;24.11;44.56;95471.22;6174989;23;20175;-88
2023/06/12 09:17:17;;;;;;;7.72;4.93;;;;;;;24.13;43.59;95478.88;6176232;23;20175;-88
2023/06/12 09:19:44;;;;;;;5.07;4.57;;;;;;;24.28;43.42;95481.50;6177043;23;20273;-88
2023/06/12 09:22:12;;;;;;;4.53;4.13;;;;;;;24.29;43.40;95480.47;6179691;23;20204;-87
2023/06/12 09:24:40;;;;;;;5.00;4.60;;;;;;;24.35;43.06;95474.16;6176306;23;20217;-88
2023/06/12 09:27:15;;;;;;;5.05;4.65;;;;;;;24.20;43.16;95482.03;6174835;23;20194;-88
2023/06/12 09:29:42;;;;;;;5.80;4.60;;;;;;;24.05;43.01;95469.66;6178140;23;20591;-89
2023/06/12 09:32:15;;;;;;;5.43;4.03;;;;;;;24.31;42.65;95470.47;6178705;23;20206;-88
2023/06/12 09:34:48;;;;;;;4.63;4.10;;;;;;;24.49;42.84;95469.09;6178111;23;20798;-87
2023/06/12 09:37:17;;;;;;;4.38;4.00;;;;;;;24.50;41.78;95473.31;6178744;23;20175;-87
2023/06/12 09:39:45;;;;;;;4.70;4.30;;;;;;;24.43;41.82;95470.97;6178094;23;20178;-90
2023/06/12 09:42:16;;;;;;;4.75;3.88;;;;;;;24.77;42.40;95467.72;6177102;23;20265;-87
2023/06/12 09:44:43;;;;;;;4.15;3.83;;;;;;;24.94;40.63;95462.97;6177873;23;20158;-88
2023/06/12 09:47:11;;;;;;;4.40;4.00;;;;;;;24.87;39.87;95459.00;6178534;23;20197;-87
2023/06/12 09:49:37;;;;;;;4.45;4.03;;;;;;;24.98;39.77;95469.28;6179857;23;20178;-86
2023/06/12 09:52:07;;;;;;;4.15;3.75;;;;;;;25.07;39.57;95461.56;6179064;23;20206;-88
2023/06/12 09:54:34;;;;;;;4.40;4.00;;;;;;;24.99;39.24;95462.94;6178059;23;20174;-88
2023/06/12 09:57:06;;;;;;;4.28;3.88;;;;;;;24.93;38.66;95463.19;6175903;23;20170;-88
2023/06/12 09:59:34;;;;;;;4.20;3.90;;;;;;;25.01;38.71;95460.84;6178554;23;20173;-88
2023/06/12 10:02:05;;;;;;;5.55;3.78;;;;;;;25.05;38.98;95455.78;6180847;23;20265;-88
2023/06/12 10:04:43;;;;;;;5.05;4.35;;;;;;;25.35;37.99;95452.22;6179707;23;20251;-88
2023/06/12 10:07:32;;;;;;;5.30;3.90;;;;;;;25.51;37.21;95445.78;6177444;23;20208;-87
2023/06/12 10:10:00;;;;;;;7.95;4.30;;;;;;;25.52;36.96;95457.13;6179631;23;20179;-87
2023/06/12 10:12:34;;;;;;;4.82;4.03;;;;;;;25.97;36.80;95451.56;6182911;23;20204;-88
2023/06/12 10:15:06;;;;;;;5.50;4.18;;;;;;;26.07;35.90;95448.81;6181960;23;20237;-86
2023/06/12 10:17:34;;;;;;;3.90;3.60;;;;;;;26.28;35.73;95446.00;6184114;23;20879;-87
2023/06/12 10:20:04;;;;;;;4.45;4.07;;;;;;;26.36;34.69;95446.19;6186278;23;20170;-88
2023/06/12 10:25:20;;;;;;;6.28;3.88;;;;;;;26.11;33.64;95451.72;6195691;23;20545;-87
2023/06/12 10:27:49;;;;;;;3.83;3.53;;;;;;;26.12;34.59;95445.38;6190432;23;20199;-86
2023/06/12 10:30:17;;;;;;;6.32;5.82;;;;;;;26.26;34.87;95435.72;6182580;23;20183;-88
2023/06/12 10:32:55;;;;;;;14.50;13.27;;;;;;;26.38;33.53;95443.28;6182224;23;20209;-88
2023/06/12 10:35:31;;;;;;;5.63;4.07;;;;;;;26.68;32.99;95444.84;6182347;23;20173;-88
2023/06/12 10:38:00;;;;;;;4.82;3.67;;;;;;;26.75;32.98;95440.75;6184016;23;20571;-88
2023/06/12 10:40:30;;;;;;;4.10;3.80;;;;;;;26.74;32.82;95436.56;6183638;23;20704;-87
2023/06/12 10:43:03;;;;;;;3.85;3.53;;;;;;;26.63;32.53;95421.91;6181953;23;20198;-88
2023/06/12 10:45:31;;;;;;;4.57;4.10;;;;;;;26.18;33.49;95433.66;6179331;23;20233;-89
2023/06/12 10:48:26;;;;;;;4.68;3.80;;;;;;;26.31;33.23;95429.66;6178719;23;20217;-89
2023/06/12 10:50:56;;;;;;;4.55;3.67;;;;;;;26.48;33.34;95430.00;6179866;23;20225;-87
2023/06/12 10:53:31;;;;;;;3.88;3.53;;;;;;;26.41;32.32;95429.53;6178342;23;20510;-88
2023/06/12 10:58:57;;;;;;;3.72;3.42;;;;;;;26.88;32.68;95433.25;6168557;23;20178;-89
2023/06/12 11:01:45;;;;;;;4.15;3.75;;;;;;;26.58;32.40;95426.44;6179007;23;20186;-88
2023/06/12 11:04:12;;;;;;;5.40;3.88;;;;;;;26.47;33.20;95420.50;6180553;23;20158;-89
2023/06/12 11:06:38;;;;;;;5.75;4.78;;;;;;;26.53;32.63;95413.31;6179038;23;20205;-88
2023/06/12 11:09:09;;;;;;;4.45;4.15;;;;;;;26.71;32.54;95409.94;6180653;23;20178;-87
2023/06/12 11:11:49;;;;;;;3.97;3.67;;;;;;;27.06;32.65;95408.72;6179945;23;20194;-88
2023/06/12 11:14:17;;;;;;;5.53;3.97;;;;;;;27.31;32.31;95420.81;6178903;23;20173;-89
2023/06/12 11:22:27;;;;;;;5.10;3.67;;;;;;;27.23;31.38;95416.94;6164800;23;20194;-88
2023/06/12 11:25:02;;;;;;;4.78;4.07;;;;;;;26.77;32.43;95414.06;6178234;23;20162;-87
2023/06/12 11:27:30;;;;;;;7.32;4.00;;;;;;;27.03;32.90;95399.50;6178512;23;20208;-89
2023/06/12 11:30:10;;;;;;;4.05;3.75;;;;;;;27.31;31.56;95397.81;6180720;23;20177;-88
2023/06/12 11:32:40;;;;;;;4.10;3.80;;;;;;;27.34;31.83;95394.56;6180130;23;20209;-89
2023/06/12 11:44:22;;;;;;;4.88;3.83;;;;;;;27.25;32.85;95393.66;6148400;23;20573;-86
2023/06/12 11:47:11;;;;;;;;;;;;;;;;;;;;;
2023/06/12 11:55:38;;;;;;;4.00;3.70;;;;;;;26.62;34.07;95391.28;6143921;23;20210;-86
2023/06/12 11:58:09;;;;;;;6.07;3.70;;;;;;;26.58;32.78;95405.31;6149626;23;20179;-88
2023/06/12 12:03:13;;;;;;;4.53;4.07;;;;;;;26.96;32.07;95399.06;6151058;23;20206;-87
2023/06/12 12:09:25;;;;;;;22.35;20.30;;;;;;;27.34;32.00;95389.28;6028553;23;20598;-87
2023/06/12 12:17:18;;;;;;;4.70;4.28;;;;;;;27.54;31.42;95382.91;6144940;23;20244;-86
2023/06/12 12:33:29;;;;;;;4.20;3.80;;;;;;;27.75;30.59;95383.41;5985155;23;20681;-86
2023/06/12 13:19:14;;;;;;;4.35;3.10;;;;;;;27.96;28.08;95352.09;6179348;23;20181;-86
2023/06/12 13:21:43;;;;;;;4.68;3.40;;;;;;;27.90;28.34;95354.06;6181739;23;20197;-90
2023/06/12 13:24:10;;;;;;;3.63;3.30;;;;;;;27.77;29.06;95355.56;6182270;23;20201;-87
2023/06/12 13:26:37;;;;;;;4.30;3.17;;;;;;;27.82;28.81;95341.47;6179545;23;20193;-86
2023/06/12 13:29:07;;;;;;;3.00;2.80;;;;;;;27.76;28.14;95353.22;6180503;23;20549;-87
2023/06/12 13:31:47;;;;;;;4.38;4.07;;;;;;;27.50;27.56;95363.41;6180138;23;20197;-87